Time;durP1;ratioP1;P1;durP2;ratioP2;P2;SDS_P1;SDS_P2;PMS_P1;PMS_P2;Temp;Humidity;BMP_temperature;BMP_pressure;BME280_temperature;BME280_humidity;BME280_pressure;Samples;Min_cycle;Max_cycle;Signal;HPM_P1;HPM_P2
2021/07/23 00:00:57;;;;;;;9.03;8.37;;;;;;;16.57;95.03;95682.69;5040397;28;20737;-73
2021/07/23 00:03:25;;;;;;;8.77;8.13;;;;;;;16.55;95.22;95680.25;5036752;28;20231;-73
2021/07/23 00:05:53;;;;;;;9.97;9.17;;;;;;;16.54;95.28;95677.78;5066387;28;20279;-73
2021/07/23 00:08:21;;;;;;;9.67;9.00;;;;;;;16.50;95.41;95678.22;5053042;28;20223;-74
2021/07/23 00:10:49;;;;;;;10.13;9.33;;;;;;;16.51;95.50;95684.38;5039380;28;20230;-73
2021/07/23 00:13:18;;;;;;;7.97;7.37;;;;;;;16.51;95.88;95687.03;5066057;28;20687;-74
2021/07/23 00:15:46;;;;;;;8.10;7.47;;;;;;;16.52;96.48;95677.19;5055266;28;20736;-72
2021/07/23 00:18:14;;;;;;;8.43;7.83;;;;;;;16.49;96.46;95689.09;5048116;28;20285;-73
2021/07/23 00:20:42;;;;;;;7.97;7.30;;;;;;;16.49;96.41;95675.78;5064414;28;20317;-74
2021/07/23 00:23:10;;;;;;;10.17;9.40;;;;;;;16.47;96.08;95676.03;5063827;28;20647;-74
2021/07/23 00:25:38;;;;;;;7.20;6.60;;;;;;;16.46;96.18;95679.72;5066020;28;20227;-74
2021/07/23 00:28:07;;;;;;;11.23;9.07;;;;;;;16.51;95.92;95681.72;5065109;28;20231;-74
2021/07/23 00:30:36;;;;;;;10.73;9.63;;;;;;;16.45;95.82;95677.25;5056448;28;20248;-74
2021/07/23 00:33:04;;;;;;;26.27;8.87;;;;;;;16.26;95.35;95680.91;5076601;28;20276;-74
2021/07/23 00:35:32;;;;;;;6.90;6.30;;;;;;;16.07;94.10;95683.53;5060804;28;20497;-74
2021/07/23 00:38:01;;;;;;;7.83;6.77;;;;;;;15.77;94.08;95672.72;5064150;28;20219;-74
2021/07/23 00:40:29;;;;;;;11.70;10.40;;;;;;;15.64;95.32;95680.78;5052765;28;20241;-74
2021/07/23 00:43:00;;;;;;;9.23;8.33;;;;;;;15.60;95.84;95683.06;5047914;28;20213;-73
2021/07/23 00:45:28;;;;;;;10.17;9.43;;;;;;;15.58;95.77;95679.78;5049655;28;20453;-74
2021/07/23 00:48:01;;;;;;;10.50;8.20;;;;;;;15.58;95.63;95677.09;5046246;28;20285;-74
2021/07/23 00:50:32;;;;;;;7.70;7.20;;;;;;;15.43;95.70;95667.78;5049049;28;20237;-74
2021/07/23 00:53:04;;;;;;;9.93;7.87;;;;;;;15.33;96.29;95665.59;5053822;28;20591;-74
2021/07/23 00:55:34;;;;;;;9.07;8.33;;;;;;;15.29;96.53;95669.72;5052888;28;20262;-74
2021/07/23 00:58:02;;;;;;;6.93;6.53;;;;;;;15.31;96.85;95665.00;5066426;28;20236;-74
2021/07/23 01:00:33;;;;;;;36.23;10.33;;;;;;;15.21;97.58;95659.31;5045944;28;20595;-74
2021/07/23 01:03:06;;;;;;;11.73;10.60;;;;;;;15.08;97.80;95661.00;5043694;28;20275;-74
2021/07/23 01:05:36;;;;;;;8.87;8.27;;;;;;;15.12;97.48;95665.91;5062418;28;20218;-74
2021/07/23 01:08:07;;;;;;;8.23;7.63;;;;;;;15.14;97.48;95664.66;5066992;28;20581;-75
2021/07/23 01:10:38;;;;;;;10.00;9.13;;;;;;;15.16;97.19;95664.44;5048166;28;20226;-74
2021/07/23 01:13:18;;;;;;;22.13;11.13;;;;;;;15.07;97.07;95661.22;5050404;28;20570;-74
2021/07/23 01:15:50;;;;;;;8.63;7.93;;;;;;;15.00;97.08;95658.63;5050124;28;20232;-74
2021/07/23 01:18:21;;;;;;;10.13;9.23;;;;;;;14.89;97.50;95658.44;5033088;28;20268;-72
2021/07/23 01:20:57;;;;;;;10.10;8.73;;;;;;;14.88;97.67;95664.78;5030868;28;20391;-74
2021/07/23 01:23:29;;;;;;;12.17;8.87;;;;;;;14.93;97.73;95668.44;5046647;28;20214;-74
2021/07/23 01:26:00;;;;;;;18.23;10.03;;;;;;;14.90;97.84;95671.50;5054682;28;20228;-74
2021/07/23 01:28:32;;;;;;;13.73;9.27;;;;;;;14.79;97.86;95662.34;5047305;28;20211;-74
2021/07/23 01:31:13;;;;;;;9.03;8.23;;;;;;;14.73;97.55;95665.06;5055699;28;20224;-74
2021/07/23 01:33:42;;;;;;;8.37;7.70;;;;;;;14.71;97.68;95659.13;5060866;28;20232;-74
2021/07/23 01:36:10;;;;;;;9.13;7.63;;;;;;;14.71;97.95;95661.75;5045995;28;20217;-74
2021/07/23 01:38:52;;;;;;;8.90;8.20;;;;;;;14.71;97.91;95653.78;5051537;28;20225;-74
2021/07/23 01:41:23;;;;;;;8.37;7.77;;;;;;;14.76;97.95;95654.00;5044388;28;20598;-74
2021/07/23 01:43:54;;;;;;;10.00;8.97;;;;;;;14.71;98.39;95648.47;5050918;28;20305;-74
2021/07/23 01:46:23;;;;;;;8.17;7.37;;;;;;;14.67;98.38;95652.59;5042357;28;20226;-73
2021/07/23 01:48:53;;;;;;;10.73;9.73;;;;;;;14.67;98.16;95648.09;5060300;28;20245;-73
2021/07/23 01:51:30;;;;;;;9.73;8.83;;;;;;;14.61;98.48;95650.78;5057429;28;20308;-74
2021/07/23 01:54:00;;;;;;;9.73;8.93;;;;;;;14.59;97.96;95650.16;5049239;28;20269;-74
2021/07/23 01:56:30;;;;;;;16.73;9.07;;;;;;;14.54;97.95;95655.28;5040219;28;20226;-74
2021/07/23 01:59:04;;;;;;;11.97;8.27;;;;;;;14.46;97.88;95654.50;5051497;28;20218;-74
2021/07/23 02:01:38;;;;;;;9.90;8.90;;;;;;;14.33;98.38;95651.81;5037371;28;20221;-74
2021/07/23 02:04:18;;;;;;;10.17;9.37;;;;;;;14.22;99.07;95660.44;5039175;28;20714;-74
2021/07/23 02:06:47;;;;;;;8.03;7.33;;;;;;;14.17;98.94;95657.56;5062084;28;20250;-74
2021/07/23 02:09:17;;;;;;;10.77;8.10;;;;;;;14.06;98.86;95655.53;5037799;28;20238;-74
2021/07/23 02:11:55;;;;;;;11.37;10.37;;;;;;;13.93;99.16;95665.16;5039199;28;20627;-74
2021/07/23 02:14:30;;;;;;;10.63;9.73;;;;;;;13.87;99.45;95660.66;5038460;28;21004;-74
2021/07/23 02:16:58;;;;;;;7.83;7.13;;;;;;;13.87;99.27;95660.66;5059499;28;20699;-74
2021/07/23 02:19:28;;;;;;;7.23;6.73;;;;;;;13.86;98.93;95652.91;5033959;28;20217;-74
2021/07/23 02:22:05;;;;;;;8.17;7.47;;;;;;;13.85;99.17;95660.03;5041966;28;20312;-74
2021/07/23 02:24:34;;;;;;;13.23;9.10;;;;;;;13.85;99.56;95664.53;5072766;28;20217;-74
2021/07/23 02:27:03;;;;;;;9.30;8.47;;;;;;;13.83;99.61;95661.28;5046713;28;20231;-74
2021/07/23 02:29:31;;;;;;;9.10;8.40;;;;;;;13.76;100.00;95661.25;5044046;28;20249;-74
2021/07/23 02:31:59;;;;;;;10.20;9.33;;;;;;;13.71;100.00;95653.09;5053695;28;20222;-74
2021/07/23 02:34:29;;;;;;;9.00;8.40;;;;;;;13.70;100.00;95656.75;5035945;28;20771;-74
2021/07/23 02:36:58;;;;;;;6.77;6.27;;;;;;;13.77;100.00;95651.47;5071207;28;20271;-74
2021/07/23 02:39:26;;;;;;;8.20;7.60;;;;;;;13.79;100.00;95646.75;5036649;28;20246;-74
2021/07/23 02:42:00;;;;;;;8.53;7.83;;;;;;;13.68;100.00;95648.19;5033185;28;20277;-74
2021/07/23 02:44:35;;;;;;;9.73;8.83;;;;;;;13.59;100.00;95644.09;5046556;28;20223;-74
2021/07/23 02:47:04;;;;;;;8.77;8.17;;;;;;;13.56;100.00;95649.81;5039344;28;20284;-74
2021/07/23 02:49:34;;;;;;;7.77;7.17;;;;;;;13.55;100.00;95643.72;5050743;28;20221;-74
2021/07/23 02:52:03;;;;;;;9.20;8.50;;;;;;;13.49;100.00;95641.03;5063447;28;20274;-74
2021/07/23 02:54:32;;;;;;;25.87;9.10;;;;;;;13.36;100.00;95639.19;5051006;28;20711;-74
2021/07/23 02:57:02;;;;;;;13.97;6.60;;;;;;;13.30;100.00;95638.16;5039557;28;20234;-74
2021/07/23 02:59:35;;;;;;;8.37;7.77;;;;;;;13.18;100.00;95634.44;5040128;28;20244;-74
2021/07/23 03:02:04;;;;;;;16.23;5.80;;;;;;;13.24;100.00;95640.78;5041017;28;20719;-74
2021/07/23 03:04:33;;;;;;;7.10;6.67;;;;;;;13.30;100.00;95638.16;5063244;28;20218;-74
2021/07/23 03:07:02;;;;;;;8.13;7.47;;;;;;;13.37;100.00;95630.22;5058202;28;20236;-74
2021/07/23 03:09:31;;;;;;;7.80;7.00;;;;;;;13.47;100.00;95632.47;5056595;28;20272;-74
2021/07/23 03:11:59;;;;;;;8.00;7.47;;;;;;;13.38;100.00;95627.38;5064567;28;20262;-74
2021/07/23 03:14:32;;;;;;;6.83;6.23;;;;;;;13.19;100.00;95629.97;5042353;28;20292;-74
2021/07/23 03:17:09;;;;;;;7.80;7.20;;;;;;;13.07;100.00;95627.06;5062583;28;20722;-69
2021/07/23 03:19:38;;;;;;;6.90;6.33;;;;;;;13.05;100.00;95626.44;5055985;28;20233;-69
2021/07/23 03:22:08;;;;;;;8.33;7.60;;;;;;;12.97;100.00;95624.78;5055474;28;20222;-69
2021/07/23 03:24:40;;;;;;;7.00;6.60;;;;;;;12.97;100.00;95618.69;5058721;28;20304;-69
2021/07/23 03:27:12;;;;;;;7.93;7.27;;;;;;;12.98;100.00;95623.78;5045265;28;20228;-69
2021/07/23 03:30:02;;;;;;;6.87;6.37;;;;;;;12.99;100.00;95622.78;5078163;28;20237;-69
2021/07/23 03:32:31;;;;;;;8.83;8.13;;;;;;;13.02;100.00;95627.66;5066163;28;20299;-69
2021/07/23 03:34:59;;;;;;;10.03;9.20;;;;;;;13.02;100.00;95624.19;5041208;28;20716;-69
2021/07/23 03:37:46;;;;;;;10.80;9.77;;;;;;;12.87;100.00;95621.72;5050452;28;20234;-70
2021/07/23 03:40:28;;;;;;;8.00;7.40;;;;;;;12.90;100.00;95617.88;5045655;28;20214;-69
2021/07/23 03:43:00;;;;;;;8.47;7.70;;;;;;;12.93;100.00;95622.75;5052253;28;20226;-69
2021/07/23 03:45:37;;;;;;;15.17;9.60;;;;;;;12.86;100.00;95617.44;5056055;28;20642;-70
2021/07/23 03:48:12;;;;;;;11.37;9.53;;;;;;;12.86;100.00;95616.63;5065929;28;20305;-69
2021/07/23 03:50:45;;;;;;;6.67;6.27;;;;;;;12.90;100.00;95613.38;5038879;28;20250;-69
2021/07/23 03:53:15;;;;;;;9.67;8.87;;;;;;;12.94;100.00;95613.78;5044544;28;20233;-69
2021/07/23 03:55:46;;;;;;;7.60;7.00;;;;;;;12.95;100.00;95612.75;5050806;28;20222;-69
2021/07/23 03:58:32;;;;;;;10.43;9.53;;;;;;;12.96;100.00;95611.75;5035470;28;20581;-69
2021/07/23 04:01:06;;;;;;;8.07;7.47;;;;;;;12.99;100.00;95600.78;5028592;28;20223;-69
2021/07/23 04:03:37;;;;;;;7.97;7.27;;;;;;;13.04;100.00;95598.31;5054805;28;20240;-69
2021/07/23 04:06:08;;;;;;;6.93;6.43;;;;;;;13.09;100.00;95607.31;5038051;28;20298;-69
2021/07/23 04:08:39;;;;;;;7.37;6.87;;;;;;;13.14;100.00;95603.22;5055054;28;20225;-69
2021/07/23 04:11:14;;;;;;;7.20;6.70;;;;;;;13.15;100.00;95597.72;5041405;28;20350;-69
2021/07/23 04:13:43;;;;;;;25.40;12.30;;;;;;;13.08;100.00;95610.16;5045231;28;20300;-69
2021/07/23 04:16:13;;;;;;;8.83;8.23;;;;;;;12.99;100.00;95608.72;5066385;28;20217;-69
2021/07/23 04:18:43;;;;;;;7.63;7.07;;;;;;;13.02;100.00;95614.44;5041600;28;20698;-69
2021/07/23 04:21:32;;;;;;;7.20;6.70;;;;;;;13.04;100.00;95612.38;5071554;28;20596;-69
2021/07/23 04:24:08;;;;;;;6.47;5.97;;;;;;;13.06;100.00;95618.28;5050406;28;20242;-69
2021/07/23 04:26:38;;;;;;;5.77;5.37;;;;;;;13.07;100.00;95619.09;5036324;28;20229;-69
2021/07/23 04:29:08;;;;;;;6.93;5.77;;;;;;;13.07;100.00;95619.09;5046047;28;20237;-69
2021/07/23 04:31:37;;;;;;;23.87;9.30;;;;;;;13.04;100.00;95624.81;5053067;28;20230;-69
2021/07/23 04:34:07;;;;;;;6.37;5.97;;;;;;;13.04;100.00;95624.81;5048898;28;20242;-68
2021/07/23 04:37:00;;;;;;;8.00;7.30;;;;;;;13.07;100.00;95619.09;5063025;28;20276;-69
2021/07/23 04:39:38;;;;;;;6.97;6.57;;;;;;;13.11;100.00;95625.66;5029933;28;20215;-69
2021/07/23 04:42:09;;;;;;;7.77;7.23;;;;;;;13.16;100.00;95630.34;5043111;28;20227;-69
2021/07/23 04:44:39;;;;;;;10.13;9.33;;;;;;;13.13;100.00;95626.25;5059870;28;20218;-69
2021/07/23 04:47:09;;;;;;;8.03;7.37;;;;;;;13.15;100.00;95632.19;5065806;28;20229;-69
2021/07/23 04:49:42;;;;;;;8.27;7.57;;;;;;;13.23;100.00;95618.78;5043733;28;20226;-69
2021/07/23 04:52:21;;;;;;;7.47;6.97;;;;;;;13.39;100.00;95630.84;5056487;28;20250;-69
2021/07/23 04:55:19;;;;;;;6.47;6.07;;;;;;;13.50;100.00;95629.41;4986092;28;20227;-69
2021/07/23 04:57:53;;;;;;;8.47;7.83;;;;;;;13.60;100.00;95635.13;5059291;28;20221;-68
2021/07/23 05:00:21;;;;;;;10.30;9.37;;;;;;;13.69;100.00;95631.25;5065397;28;20226;-69
2021/07/23 05:02:56;;;;;;;11.60;10.60;;;;;;;13.74;100.00;95631.47;5062869;28;20258;-69
2021/07/23 05:05:25;;;;;;;24.87;12.80;;;;;;;13.83;100.00;95632.91;5058414;28;20237;-69
2021/07/23 05:07:53;;;;;;;14.57;11.10;;;;;;;13.92;100.00;95631.69;5062464;28;20246;-69
2021/07/23 05:10:22;;;;;;;12.03;10.90;;;;;;;14.05;100.00;95627.38;5039539;28;20231;-69
2021/07/23 05:12:51;;;;;;;15.97;12.13;;;;;;;14.18;100.00;95635.34;5044986;28;20254;-69
2021/07/23 05:15:19;;;;;;;13.37;12.07;;;;;;;14.30;100.00;95625.69;5065194;28;20241;-69
2021/07/23 05:17:48;;;;;;;14.00;13.00;;;;;;;14.44;100.00;95632.59;5033537;28;20225;-69
2021/07/23 05:20:17;;;;;;;12.67;11.40;;;;;;;14.57;100.00;95636.28;5049939;28;20267;-69
2021/07/23 05:22:45;;;;;;;13.73;12.63;;;;;;;14.72;100.00;95623.56;5039497;28;20235;-69
2021/07/23 05:25:13;;;;;;;13.20;12.00;;;;;;;14.90;100.00;95634.31;5079059;28;20366;-69
2021/07/23 05:27:42;;;;;;;13.27;12.10;;;;;;;15.06;100.00;95639.13;5050423;28;20246;-69
2021/07/23 05:30:10;;;;;;;13.60;12.37;;;;;;;15.21;100.00;95632.75;5053120;28;20612;-69
2021/07/23 05:32:39;;;;;;;13.10;12.00;;;;;;;15.38;100.00;95623.25;5052348;28;20314;-69
2021/07/23 05:35:08;;;;;;;12.33;11.27;;;;;;;15.51;100.00;95623.13;5047742;28;20485;-69
2021/07/23 05:37:37;;;;;;;23.40;12.03;;;;;;;15.66;100.00;95624.72;5043211;28;20452;-69
2021/07/23 05:40:07;;;;;;;12.70;11.47;;;;;;;15.78;100.00;95628.28;5081710;28;20645;-69
2021/07/23 05:42:35;;;;;;;12.87;11.83;;;;;;;15.87;100.00;95616.34;5064364;28;20347;-69
2021/07/23 05:45:03;;;;;;;14.13;11.67;;;;;;;15.94;99.65;95619.78;5066568;28;20318;-69
2021/07/23 05:47:31;;;;;;;12.50;11.20;;;;;;;16.03;99.76;95618.47;5065456;28;20233;-69
2021/07/23 05:49:59;;;;;;;13.00;12.10;;;;;;;16.13;99.83;95626.75;5052007;28;20302;-69
2021/07/23 05:52:27;;;;;;;13.03;12.00;;;;;;;16.27;99.35;95621.28;5067598;28;20710;-69
2021/07/23 05:54:57;;;;;;;9.80;8.73;;;;;;;16.45;99.07;95623.97;5082321;28;20213;-69
2021/07/23 05:57:25;;;;;;;11.87;10.87;;;;;;;16.57;98.70;95627.56;5060848;28;20214;-69
2021/07/23 05:59:53;;;;;;;10.77;9.87;;;;;;;16.72;98.11;95629.88;5079834;28;20252;-69
2021/07/23 06:02:21;;;;;;;11.90;10.87;;;;;;;16.84;97.24;95621.97;5071030;28;20268;-69
2021/07/23 06:04:50;;;;;;;10.30;9.40;;;;;;;16.98;96.90;95631.41;5042301;28;20229;-69
2021/07/23 06:07:20;;;;;;;10.67;9.87;;;;;;;17.12;96.96;95635.53;5032189;28;20254;-69
2021/07/23 06:09:48;;;;;;;13.93;12.53;;;;;;;17.24;96.79;95633.72;5050110;28;20229;-69
2021/07/23 06:12:18;;;;;;;11.53;10.53;;;;;;;17.32;96.49;95633.41;5062151;28;20304;-69
2021/07/23 06:14:46;;;;;;;17.90;12.83;;;;;;;17.45;95.76;95634.25;5058853;28;20360;-70
2021/07/23 06:17:14;;;;;;;11.63;10.63;;;;;;;17.58;95.31;95626.06;5043203;28;20237;-69
2021/07/23 06:19:43;;;;;;;9.90;9.00;;;;;;;17.70;94.39;95631.47;5067484;28;20794;-69
2021/07/23 06:22:11;;;;;;;14.87;11.07;;;;;;;17.77;92.86;95638.34;5061283;28;20515;-69
2021/07/23 06:24:40;;;;;;;12.10;11.03;;;;;;;17.97;91.58;95638.00;5061583;28;20657;-69
2021/07/23 06:27:08;;;;;;;11.50;10.60;;;;;;;18.14;90.89;95638.16;5062182;28;20218;-69
2021/07/23 06:29:38;;;;;;;11.57;10.40;;;;;;;18.25;90.66;95639.19;5075867;28;20347;-69
2021/07/23 06:32:06;;;;;;;10.67;9.93;;;;;;;18.37;90.80;95635.47;5061375;28;20246;-69
2021/07/23 06:34:36;;;;;;;11.37;10.23;;;;;;;18.46;89.07;95631.38;5058049;28;20222;-69
2021/07/23 06:37:05;;;;;;;10.97;10.03;;;;;;;18.56;88.86;95635.34;5074054;28;20907;-69
2021/07/23 06:39:33;;;;;;;11.80;10.73;;;;;;;18.59;87.74;95625.00;5062043;28;20222;-69
2021/07/23 06:42:01;;;;;;;11.90;10.67;;;;;;;18.63;87.09;95631.50;5062717;28;20226;-69
2021/07/23 06:44:30;;;;;;;11.37;10.27;;;;;;;18.67;86.34;95632.69;5040791;28;20238;-69
2021/07/23 06:47:00;;;;;;;10.50;9.67;;;;;;;18.82;86.62;95629.50;5062559;28;20722;-70
2021/07/23 06:49:28;;;;;;;10.03;9.33;;;;;;;18.74;85.26;95636.06;5068191;28;20234;-69
2021/07/23 06:51:56;;;;;;;11.10;10.07;;;;;;;18.89;84.29;95640.09;5069688;28;20261;-69
2021/07/23 06:54:25;;;;;;;9.43;8.73;;;;;;;19.01;83.85;95627.50;5043526;28;20756;-69
2021/07/23 06:56:53;;;;;;;9.03;8.43;;;;;;;19.16;82.76;95635.00;5060690;28;20222;-69
2021/07/23 06:59:21;;;;;;;10.40;8.67;;;;;;;19.35;81.99;95633.78;5041014;28;20249;-70
2021/07/23 07:01:49;;;;;;;10.90;10.07;;;;;;;19.52;82.02;95637.31;5064926;28;20256;-70
2021/07/23 07:04:19;;;;;;;9.83;9.03;;;;;;;19.54;79.63;95629.03;5045024;28;20233;-70
2021/07/23 07:06:47;;;;;;;10.03;9.23;;;;;;;19.68;79.75;95626.91;5052595;28;20274;-70
2021/07/23 07:09:15;;;;;;;9.77;9.07;;;;;;;19.85;79.53;95633.09;5055186;28;20630;-69
2021/07/23 07:11:44;;;;;;;13.40;10.60;;;;;;;20.01;79.02;95632.25;5045799;28;20235;-69
2021/07/23 07:14:12;;;;;;;12.77;8.93;;;;;;;20.14;79.07;95625.78;5071968;28;20253;-69
2021/07/23 07:16:40;;;;;;;10.70;9.60;;;;;;;20.20;80.00;95629.34;5053353;28;20906;-69
2021/07/23 07:19:08;;;;;;;11.07;9.80;;;;;;;20.32;79.94;95632.75;5081250;28;20214;-69
2021/07/23 07:21:38;;;;;;;10.50;9.60;;;;;;;20.46;79.29;95634.06;5064232;28;20229;-69
2021/07/23 07:24:05;;;;;;;11.37;10.10;;;;;;;20.57;79.70;95641.19;5067468;28;20273;-70
2021/07/23 07:26:34;;;;;;;9.67;9.00;;;;;;;20.77;78.30;95629.13;5063372;28;20217;-70
2021/07/23 07:29:02;;;;;;;11.37;10.30;;;;;;;20.74;78.70;95636.59;5069818;28;20236;-70
2021/07/23 07:31:30;;;;;;;12.63;11.60;;;;;;;20.93;77.20;95629.06;5059248;28;20233;-70
2021/07/23 07:33:58;;;;;;;9.43;8.57;;;;;;;21.25;76.71;95623.00;5041210;28;20226;-70
2021/07/23 07:36:26;;;;;;;10.80;9.87;;;;;;;21.53;76.84;95628.16;5062175;28;20218;-70
2021/07/23 07:38:58;;;;;;;11.93;10.87;;;;;;;21.81;76.30;95627.06;5047071;28;20249;-70
2021/07/23 07:41:27;;;;;;;9.63;8.93;;;;;;;21.89;73.94;95625.81;5066060;28;20648;-69
2021/07/23 07:43:55;;;;;;;12.33;11.27;;;;;;;22.00;72.34;95621.31;5071717;28;20222;-70
2021/07/23 07:46:24;;;;;;;10.20;9.30;;;;;;;22.23;72.55;95626.38;5059129;28;20218;-70
2021/07/23 07:48:52;;;;;;;10.53;9.63;;;;;;;22.14;71.43;95638.69;5058682;28;20703;-70
2021/07/23 07:51:20;;;;;;;10.37;9.47;;;;;;;22.49;71.52;95634.59;5056621;28;20451;-70
2021/07/23 07:53:47;;;;;;;11.67;10.40;;;;;;;22.55;70.14;95633.59;5043989;28;20704;-70
2021/07/23 07:56:16;;;;;;;9.33;8.53;;;;;;;22.76;71.10;95635.31;5058157;28;20218;-67
2021/07/23 07:58:45;;;;;;;11.33;10.33;;;;;;;22.84;71.77;95629.47;5054916;28;20238;-68
2021/07/23 08:01:14;;;;;;;11.67;10.70;;;;;;;22.93;71.36;95625.19;5071102;28;20404;-67
2021/07/23 08:03:43;;;;;;;8.10;7.30;;;;;;;23.10;69.75;95630.41;5068599;28;20225;-68
2021/07/23 08:06:19;;;;;;;9.52;8.63;;;;;;;23.34;69.31;95622.69;5066536;28;20271;-67
2021/07/23 08:08:48;;;;;;;9.93;9.10;;;;;;;23.53;68.67;95626.50;5063459;28;20635;-68
2021/07/23 08:11:18;;;;;;;13.15;11.75;;;;;;;23.37;69.01;95624.84;5066445;28;20297;-68
2021/07/23 08:13:46;;;;;;;10.43;9.63;;;;;;;23.54;69.26;95628.13;5036983;28;20221;-68
2021/07/23 08:16:15;;;;;;;10.77;10.00;;;;;;;23.59;69.28;95621.09;5062391;28;20225;-68
2021/07/23 08:18:43;;;;;;;11.57;10.48;;;;;;;23.52;67.91;95622.19;5043439;28;20225;-68
2021/07/23 08:21:12;;;;;;;12.02;11.10;;;;;;;23.89;68.09;95626.59;5065496;28;20233;-68
2021/07/23 08:23:40;;;;;;;10.45;9.60;;;;;;;24.24;68.38;95623.09;5067923;28;20217;-68
2021/07/23 08:26:08;;;;;;;7.70;7.13;;;;;;;24.55;67.05;95618.47;5063945;28;20238;-68
2021/07/23 08:28:38;;;;;;;11.10;10.23;;;;;;;24.66;65.92;95613.88;5075671;28;20225;-66
2021/07/23 08:31:06;;;;;;;10.68;9.80;;;;;;;24.86;66.00;95607.59;5062656;28;20226;-68
2021/07/23 08:33:34;;;;;;;9.15;8.57;;;;;;;24.94;64.99;95607.03;5060104;28;20225;-68
2021/07/23 08:36:03;;;;;;;11.00;10.05;;;;;;;24.86;64.90;95618.41;5042356;28;20226;-67
2021/07/23 08:38:30;;;;;;;11.23;10.27;;;;;;;24.66;64.20;95613.88;5063158;28;20237;-67
2021/07/23 08:40:59;;;;;;;11.70;10.75;;;;;;;24.87;64.19;95614.59;5043065;28;20247;-67
2021/07/23 08:43:27;;;;;;;9.70;8.32;;;;;;;25.41;64.67;95616.56;5071119;28;20348;-67
2021/07/23 08:45:57;;;;;;;8.25;7.63;;;;;;;25.88;65.04;95610.66;5069039;28;20253;-68
2021/07/23 08:48:25;;;;;;;9.07;8.30;;;;;;;26.20;62.76;95612.00;5064550;28;20224;-68
2021/07/23 08:50:53;;;;;;;12.10;11.05;;;;;;;26.35;60.10;95611.88;5042876;28;20250;-68
2021/07/23 08:53:21;;;;;;;10.55;9.75;;;;;;;26.27;60.46;95602.47;5053025;28;20242;-68
2021/07/23 08:55:49;;;;;;;12.18;11.27;;;;;;;26.24;60.16;95607.63;5073030;28;20229;-68
2021/07/23 08:58:18;;;;;;;9.73;8.80;;;;;;;26.50;62.13;95616.38;5064043;28;20735;-68
2021/07/23 09:00:46;;;;;;;10.00;9.30;;;;;;;26.99;60.96;95609.91;5041160;28;20665;-68
2021/07/23 09:03:16;;;;;;;9.50;8.70;;;;;;;27.30;59.47;95605.75;5058001;28;20226;-68
2021/07/23 09:05:45;;;;;;;8.63;8.02;;;;;;;27.64;59.84;95605.56;5062276;28;20209;-68
2021/07/23 09:08:15;;;;;;;10.07;9.38;;;;;;;27.93;58.08;95605.41;5063763;28;20215;-68
2021/07/23 09:10:46;;;;;;;9.98;9.02;;;;;;;28.21;56.42;95602.81;5069029;28;20230;-68
2021/07/23 09:13:22;;;;;;;11.30;10.18;;;;;;;28.31;54.11;95599.94;5061782;28;20278;-68
2021/07/23 09:15:50;;;;;;;11.27;10.27;;;;;;;28.24;54.22;95599.50;5046764;28;20767;-68
2021/07/23 09:18:27;;;;;;;8.45;7.95;;;;;;;28.25;53.32;95595.66;5054359;28;20222;-68
2021/07/23 09:20:56;;;;;;;12.60;11.57;;;;;;;27.64;56.23;95593.91;5058844;28;20316;-68
2021/07/23 09:23:30;;;;;;;13.48;12.48;;;;;;;27.06;56.92;95594.13;5058838;28;20329;-67
2021/07/23 09:26:02;;;;;;;11.55;10.70;;;;;;;27.62;56.43;95590.69;5061389;28;20221;-68
2021/07/23 09:28:32;;;;;;;9.90;9.30;;;;;;;27.47;56.89;95584.38;5068003;28;20245;-68
2021/07/23 09:31:02;;;;;;;11.40;10.63;;;;;;;27.90;55.41;95595.16;5071260;28;20222;-68
2021/07/23 09:33:34;;;;;;;9.13;8.32;;;;;;;28.35;53.66;95581.97;5060282;28;20211;-67
2021/07/23 09:36:05;;;;;;;11.32;10.30;;;;;;;28.70;55.37;95583.22;5056870;28;20381;-68
2021/07/23 09:38:36;;;;;;;9.32;8.57;;;;;;;29.04;54.85;95576.63;5073147;28;20381;-68
2021/07/23 09:41:06;;;;;;;9.20;8.60;;;;;;;28.34;53.42;95585.78;5064917;28;20256;-68
2021/07/23 09:43:37;;;;;;;10.27;9.57;;;;;;;28.88;54.72;95584.22;5059511;28;20234;-67
2021/07/23 09:46:26;;;;;;;10.27;9.55;;;;;;;29.36;54.07;95578.41;5070960;28;20705;-68
2021/07/23 09:48:59;;;;;;;9.07;8.57;;;;;;;29.79;53.45;95578.00;5083395;28;20221;-68
2021/07/23 09:51:28;;;;;;;8.02;7.63;;;;;;;30.18;51.77;95571.94;5066472;28;20222;-68
2021/07/23 09:53:57;;;;;;;8.90;8.38;;;;;;;30.65;52.48;95567.72;5074109;28;20226;-68
2021/07/23 09:56:27;;;;;;;10.88;10.18;;;;;;;30.63;50.65;95566.38;5063541;28;20683;-68
2021/07/23 09:58:57;;;;;;;8.80;8.10;;;;;;;30.81;49.76;95563.44;5060891;28;20453;-68
2021/07/23 10:01:31;;;;;;;11.15;10.15;;;;;;;30.88;46.71;95565.72;5051906;28;20227;-67
2021/07/23 10:04:10;;;;;;;9.20;8.05;;;;;;;30.71;47.24;95561.00;5073128;28;20229;-68
2021/07/23 10:06:45;;;;;;;9.07;8.60;;;;;;;30.42;50.27;95555.22;5058200;28;20226;-68
2021/07/23 10:09:17;;;;;;;9.65;8.98;;;;;;;30.75;51.40;95556.56;5078790;28;20729;-68
2021/07/23 10:11:46;;;;;;;10.43;7.82;;;;;;;31.01;50.20;95553.13;5062652;28;20227;-68
2021/07/23 10:14:20;;;;;;;10.32;9.60;;;;;;;30.43;49.84;95551.41;5066602;28;20530;-68
2021/07/23 10:16:49;;;;;;;9.77;9.02;;;;;;;29.58;49.49;95548.56;5050278;28;20233;-68
2021/07/23 10:19:22;;;;;;;10.68;9.48;;;;;;;29.98;50.60;95554.13;5043314;28;20306;-68
2021/07/23 10:21:55;;;;;;;10.07;9.32;;;;;;;29.84;48.85;95550.69;5068745;28;20230;-68
2021/07/23 10:24:25;;;;;;;8.88;8.35;;;;;;;30.36;49.34;95540.97;5072526;28;20214;-68
2021/07/23 10:26:54;;;;;;;9.18;8.57;;;;;;;30.82;49.26;95542.47;5063616;28;20222;-68
2021/07/23 10:29:45;;;;;;;9.25;8.65;;;;;;;31.40;49.52;95528.50;5057452;28;20296;-68
2021/07/23 10:32:36;;;;;;;8.70;8.20;;;;;;;31.68;46.84;95520.03;5065545;28;20221;-68
2021/07/23 10:35:32;;;;;;;9.48;8.68;;;;;;;31.58;44.05;95525.81;5064777;28;20273;-68
2021/07/23 10:38:02;;;;;;;11.18;10.27;;;;;;;31.28;45.39;95522.91;5070255;28;20259;-68
2021/07/23 10:40:39;;;;;;;7.85;7.38;;;;;;;31.65;45.18;95517.94;5070741;28;20221;-68
2021/07/23 10:43:33;;;;;;;9.45;8.65;;;;;;;31.72;43.92;95520.97;5033742;28;20275;-68
2021/07/23 10:46:03;;;;;;;9.23;8.35;;;;;;;31.97;46.02;95512.00;5037945;28;20683;-68
2021/07/23 10:48:46;;;;;;;6.60;6.30;;;;;;;33.80;44.35;95509.19;5061712;28;20253;-68
2021/07/23 10:51:50;;;;;;;9.02;8.52;;;;;;;34.55;43.06;95518.13;5057725;28;20252;-68
2021/07/23 10:54:19;;;;;;;7.57;7.18;;;;;;;34.89;42.02;95505.16;5047855;28;20246;-68
2021/07/23 10:57:14;;;;;;;10.27;9.63;;;;;;;35.09;42.51;95506.97;5069990;28;20222;-68
2021/07/23 10:59:50;;;;;;;8.02;7.45;;;;;;;35.32;39.82;95502.59;5048277;28;20252;-69
2021/07/23 11:02:44;;;;;;;9.07;8.57;;;;;;;35.40;40.10;95497.38;5046491;28;20256;-68
2021/07/23 11:05:20;;;;;;;11.70;10.82;;;;;;;34.78;37.38;95493.81;5037916;28;20300;-68
2021/07/23 11:07:57;;;;;;;9.18;8.50;;;;;;;34.49;38.69;95489.34;5058376;28;20253;-68
2021/07/23 11:10:25;;;;;;;8.25;7.75;;;;;;;34.42;38.36;95487.19;5069566;28;20221;-68
2021/07/23 11:12:54;;;;;;;10.02;9.30;;;;;;;34.02;37.90;95491.63;5068488;28;20286;-68
2021/07/23 11:15:22;;;;;;;10.75;9.95;;;;;;;33.88;40.85;95487.22;5056705;28;20214;-68
2021/07/23 11:17:56;;;;;;;9.80;9.25;;;;;;;34.22;42.32;95488.81;5066150;28;20299;-68
2021/07/23 11:20:27;;;;;;;9.38;8.65;;;;;;;34.11;37.49;95484.94;5048030;28;20229;-68
2021/07/23 11:22:56;;;;;;;9.07;8.38;;;;;;;34.21;38.44;95476.28;5057218;28;20223;-68
2021/07/23 11:25:25;;;;;;;7.97;7.07;;;;;;;34.25;38.26;95481.06;5059806;28;20226;-68
2021/07/23 11:27:54;;;;;;;8.32;7.82;;;;;;;34.23;38.23;95468.50;5059320;28;20234;-68
2021/07/23 11:30:25;;;;;;;8.55;8.00;;;;;;;34.37;38.82;95470.13;5053848;28;20280;-68
2021/07/23 11:32:55;;;;;;;9.63;7.57;;;;;;;34.01;36.71;95468.09;5047090;28;20246;-68
2021/07/23 11:35:25;;;;;;;7.25;6.75;;;;;;;33.97;37.25;95465.25;5042161;28;20217;-68
2021/07/23 11:37:55;;;;;;;8.65;8.05;;;;;;;33.83;37.32;95465.50;5056531;28;20298;-68
2021/07/23 11:40:25;;;;;;;8.07;7.55;;;;;;;33.58;37.52;95463.81;5066254;28;20305;-68
2021/07/23 11:42:56;;;;;;;8.65;8.05;;;;;;;33.66;38.57;95455.53;5057153;28;20599;-68